sensor_id;sensor_type;location;lat;lon;timestamp;P1;durP1;ratioP1;P2;durP2;ratioP2
15831;SDS011;8016;49.928;9.372;2023-12-22T00:01:00;2.10;;;1.30;;
15831;SDS011;8016;49.928;9.372;2023-12-22T00:03:26;3.17;;;0.73;;
15831;SDS011;8016;49.928;9.372;2023-12-22T00:05:52;2.27;;;0.80;;
15831;SDS011;8016;49.928;9.372;2023-12-22T00:08:18;0.90;;;0.70;;
15831;SDS011;8016;49.928;9.372;2023-12-22T00:10:44;1.57;;;0.73;;
15831;SDS011;8016;49.928;9.372;2023-12-22T00:13:10;5.83;;;0.83;;
15831;SDS011;8016;49.928;9.372;2023-12-22T00:15:36;2.57;;;0.80;;
15831;SDS011;8016;49.928;9.372;2023-12-22T00:18:03;0.80;;;0.57;;
15831;SDS011;8016;49.928;9.372;2023-12-22T00:20:29;1.97;;;0.60;;
15831;SDS011;8016;49.928;9.372;2023-12-22T00:22:55;4.27;;;0.93;;
15831;SDS011;8016;49.928;9.372;2023-12-22T00:25:21;1.77;;;0.80;;
15831;SDS011;8016;49.928;9.372;2023-12-22T00:27:47;2.97;;;1.33;;
15831;SDS011;8016;49.928;9.372;2023-12-22T00:30:13;1.87;;;0.70;;
15831;SDS011;8016;49.928;9.372;2023-12-22T00:32:39;2.63;;;0.70;;
15831;SDS011;8016;49.928;9.372;2023-12-22T00:35:05;4.70;;;0.60;;
15831;SDS011;8016;49.928;9.372;2023-12-22T00:37:31;2.77;;;0.80;;
15831;SDS011;8016;49.928;9.372;2023-12-22T00:39:57;2.30;;;0.90;;
15831;SDS011;8016;49.928;9.372;2023-12-22T00:42:23;2.70;;;0.80;;
15831;SDS011;8016;49.928;9.372;2023-12-22T00:44:49;1.30;;;0.73;;
15831;SDS011;8016;49.928;9.372;2023-12-22T00:47:15;3.03;;;1.07;;
15831;SDS011;8016;49.928;9.372;2023-12-22T00:49:41;1.63;;;0.80;;
15831;SDS011;8016;49.928;9.372;2023-12-22T00:52:07;2.30;;;1.00;;
15831;SDS011;8016;49.928;9.372;2023-12-22T00:54:33;4.50;;;1.13;;
15831;SDS011;8016;49.928;9.372;2023-12-22T00:56:59;2.73;;;0.90;;
15831;SDS011;8016;49.928;9.372;2023-12-22T00:59:25;3.53;;;1.00;;
15831;SDS011;8016;49.928;9.372;2023-12-22T01:01:51;2.70;;;0.87;;
15831;SDS011;8016;49.928;9.372;2023-12-22T01:04:17;3.33;;;0.80;;
15831;SDS011;8016;49.928;9.372;2023-12-22T01:06:43;2.33;;;0.87;;
15831;SDS011;8016;49.928;9.372;2023-12-22T01:09:09;2.27;;;0.60;;
15831;SDS011;8016;49.928;9.372;2023-12-22T01:11:35;4.07;;;0.80;;
15831;SDS011;8016;49.928;9.372;2023-12-22T01:14:01;2.37;;;0.93;;
15831;SDS011;8016;49.928;9.372;2023-12-22T01:16:27;2.07;;;0.63;;
15831;SDS011;8016;49.928;9.372;2023-12-22T01:18:53;0.70;;;0.60;;
15831;SDS011;8016;49.928;9.372;2023-12-22T01:21:19;3.93;;;0.80;;
15831;SDS011;8016;49.928;9.372;2023-12-22T01:23:45;1.50;;;0.80;;
15831;SDS011;8016;49.928;9.372;2023-12-22T01:26:11;2.87;;;0.60;;
15831;SDS011;8016;49.928;9.372;2023-12-22T01:28:37;1.33;;;0.50;;
15831;SDS011;8016;49.928;9.372;2023-12-22T01:31:03;4.70;;;0.80;;
15831;SDS011;8016;49.928;9.372;2023-12-22T01:33:29;0.60;;;0.60;;
15831;SDS011;8016;49.928;9.372;2023-12-22T01:35:55;1.70;;;1.00;;
15831;SDS011;8016;49.928;9.372;2023-12-22T01:38:21;3.13;;;0.80;;
15831;SDS011;8016;49.928;9.372;2023-12-22T01:40:47;2.87;;;0.70;;
15831;SDS011;8016;49.928;9.372;2023-12-22T01:43:13;5.60;;;1.40;;
15831;SDS011;8016;49.928;9.372;2023-12-22T01:45:40;3.10;;;1.00;;
15831;SDS011;8016;49.928;9.372;2023-12-22T01:48:08;2.87;;;0.80;;
15831;SDS011;8016;49.928;9.372;2023-12-22T01:50:35;1.70;;;0.73;;
15831;SDS011;8016;49.928;9.372;2023-12-22T01:53:01;0.93;;;0.83;;
15831;SDS011;8016;49.928;9.372;2023-12-22T01:55:28;2.43;;;0.80;;
15831;SDS011;8016;49.928;9.372;2023-12-22T01:57:54;0.97;;;0.40;;
15831;SDS011;8016;49.928;9.372;2023-12-22T02:00:20;0.93;;;0.50;;
15831;SDS011;8016;49.928;9.372;2023-12-22T02:02:47;0.73;;;0.67;;
15831;SDS011;8016;49.928;9.372;2023-12-22T02:05:13;1.90;;;0.70;;
15831;SDS011;8016;49.928;9.372;2023-12-22T02:07:40;1.97;;;0.83;;
15831;SDS011;8016;49.928;9.372;2023-12-22T02:10:09;3.47;;;0.70;;
15831;SDS011;8016;49.928;9.372;2023-12-22T02:12:36;2.07;;;1.00;;
15831;SDS011;8016;49.928;9.372;2023-12-22T02:15:02;1.73;;;1.00;;
15831;SDS011;8016;49.928;9.372;2023-12-22T02:17:33;1.80;;;0.60;;
15831;SDS011;8016;49.928;9.372;2023-12-22T02:20:01;0.90;;;0.60;;
15831;SDS011;8016;49.928;9.372;2023-12-22T02:22:30;1.83;;;0.70;;
15831;SDS011;8016;49.928;9.372;2023-12-22T02:24:56;0.83;;;0.40;;
15831;SDS011;8016;49.928;9.372;2023-12-22T02:27:36;0.73;;;0.40;;
15831;SDS011;8016;49.928;9.372;2023-12-22T02:30:09;1.80;;;0.80;;
15831;SDS011;8016;49.928;9.372;2023-12-22T02:32:40;0.73;;;0.60;;
15831;SDS011;8016;49.928;9.372;2023-12-22T02:35:08;1.60;;;0.53;;
15831;SDS011;8016;49.928;9.372;2023-12-22T02:37:36;2.43;;;0.70;;
15831;SDS011;8016;49.928;9.372;2023-12-22T02:40:02;1.77;;;0.60;;
15831;SDS011;8016;49.928;9.372;2023-12-22T02:42:29;2.23;;;0.87;;
15831;SDS011;8016;49.928;9.372;2023-12-22T02:44:56;3.07;;;0.90;;
15831;SDS011;8016;49.928;9.372;2023-12-22T02:47:23;2.20;;;0.93;;
15831;SDS011;8016;49.928;9.372;2023-12-22T02:49:49;4.90;;;1.00;;
15831;SDS011;8016;49.928;9.372;2023-12-22T02:52:15;1.03;;;0.60;;
15831;SDS011;8016;49.928;9.372;2023-12-22T02:54:41;4.90;;;0.87;;
15831;SDS011;8016;49.928;9.372;2023-12-22T02:57:07;1.13;;;0.97;;
15831;SDS011;8016;49.928;9.372;2023-12-22T02:59:33;4.47;;;0.90;;
15831;SDS011;8016;49.928;9.372;2023-12-22T03:01:59;5.00;;;1.23;;
15831;SDS011;8016;49.928;9.372;2023-12-22T03:04:25;1.80;;;0.70;;
15831;SDS011;8016;49.928;9.372;2023-12-22T03:06:51;2.97;;;0.67;;
15831;SDS011;8016;49.928;9.372;2023-12-22T03:09:17;2.43;;;0.70;;
15831;SDS011;8016;49.928;9.372;2023-12-22T03:11:43;5.57;;;0.93;;
15831;SDS011;8016;49.928;9.372;2023-12-22T03:14:09;4.73;;;0.80;;
15831;SDS011;8016;49.928;9.372;2023-12-22T03:16:35;2.47;;;1.00;;
15831;SDS011;8016;49.928;9.372;2023-12-22T03:19:01;1.80;;;0.70;;
15831;SDS011;8016;49.928;9.372;2023-12-22T03:21:27;1.70;;;0.87;;
15831;SDS011;8016;49.928;9.372;2023-12-22T03:23:53;1.37;;;0.70;;
15831;SDS011;8016;49.928;9.372;2023-12-22T03:26:19;1.63;;;0.63;;
15831;SDS011;8016;49.928;9.372;2023-12-22T03:28:45;2.70;;;0.90;;
15831;SDS011;8016;49.928;9.372;2023-12-22T03:31:11;0.50;;;0.50;;
15831;SDS011;8016;49.928;9.372;2023-12-22T03:33:37;1.07;;;0.67;;
15831;SDS011;8016;49.928;9.372;2023-12-22T03:36:03;0.93;;;0.67;;
15831;SDS011;8016;49.928;9.372;2023-12-22T03:38:29;2.40;;;0.60;;
15831;SDS011;8016;49.928;9.372;2023-12-22T03:40:55;0.93;;;0.70;;
15831;SDS011;8016;49.928;9.372;2023-12-22T03:43:21;1.57;;;0.60;;
15831;SDS011;8016;49.928;9.372;2023-12-22T03:45:47;1.97;;;0.60;;
15831;SDS011;8016;49.928;9.372;2023-12-22T03:48:13;1.47;;;0.70;;
15831;SDS011;8016;49.928;9.372;2023-12-22T03:50:39;0.97;;;0.70;;
15831;SDS011;8016;49.928;9.372;2023-12-22T03:53:05;1.13;;;0.50;;
15831;SDS011;8016;49.928;9.372;2023-12-22T03:55:31;1.03;;;0.60;;
15831;SDS011;8016;49.928;9.372;2023-12-22T03:57:57;1.40;;;0.57;;
15831;SDS011;8016;49.928;9.372;2023-12-22T04:00:23;2.17;;;0.60;;
15831;SDS011;8016;49.928;9.372;2023-12-22T04:02:49;1.50;;;0.80;;
15831;SDS011;8016;49.928;9.372;2023-12-22T04:05:15;2.00;;;0.77;;
15831;SDS011;8016;49.928;9.372;2023-12-22T04:07:40;2.50;;;0.90;;
15831;SDS011;8016;49.928;9.372;2023-12-22T04:10:06;2.10;;;0.90;;
15831;SDS011;8016;49.928;9.372;2023-12-22T04:12:33;2.40;;;1.08;;
15831;SDS011;8016;49.928;9.372;2023-12-22T04:14:58;2.07;;;1.30;;
15831;SDS011;8016;49.928;9.372;2023-12-22T04:17:24;2.47;;;1.43;;
15831;SDS011;8016;49.928;9.372;2023-12-22T04:19:50;2.00;;;1.20;;
15831;SDS011;8016;49.928;9.372;2023-12-22T04:22:17;2.73;;;1.20;;
15831;SDS011;8016;49.928;9.372;2023-12-22T04:24:43;1.90;;;1.33;;
15831;SDS011;8016;49.928;9.372;2023-12-22T04:27:09;1.43;;;1.33;;
15831;SDS011;8016;49.928;9.372;2023-12-22T04:29:35;2.00;;;1.20;;
15831;SDS011;8016;49.928;9.372;2023-12-22T04:32:01;3.07;;;1.20;;
15831;SDS011;8016;49.928;9.372;2023-12-22T04:34:27;3.27;;;1.33;;
15831;SDS011;8016;49.928;9.372;2023-12-22T04:36:53;5.73;;;1.83;;
15831;SDS011;8016;49.928;9.372;2023-12-22T04:39:19;4.83;;;1.10;;
15831;SDS011;8016;49.928;9.372;2023-12-22T04:41:45;2.33;;;1.30;;
15831;SDS011;8016;49.928;9.372;2023-12-22T04:44:11;2.37;;;1.30;;
15831;SDS011;8016;49.928;9.372;2023-12-22T04:46:37;5.50;;;1.23;;
15831;SDS011;8016;49.928;9.372;2023-12-22T04:49:03;1.87;;;1.10;;
15831;SDS011;8016;49.928;9.372;2023-12-22T04:51:28;2.37;;;1.30;;
15831;SDS011;8016;49.928;9.372;2023-12-22T04:53:54;2.80;;;1.27;;
15831;SDS011;8016;49.928;9.372;2023-12-22T04:56:23;4.50;;;1.27;;
15831;SDS011;8016;49.928;9.372;2023-12-22T04:58:49;1.70;;;1.30;;
15831;SDS011;8016;49.928;9.372;2023-12-22T05:01:15;4.00;;;1.40;;
15831;SDS011;8016;49.928;9.372;2023-12-22T05:03:42;3.17;;;1.40;;
15831;SDS011;8016;49.928;9.372;2023-12-22T05:06:08;1.53;;;1.43;;
15831;SDS011;8016;49.928;9.372;2023-12-22T05:08:34;4.93;;;1.80;;
15831;SDS011;8016;49.928;9.372;2023-12-22T05:11:00;2.87;;;1.57;;
15831;SDS011;8016;49.928;9.372;2023-12-22T05:13:26;4.43;;;1.70;;
15831;SDS011;8016;49.928;9.372;2023-12-22T05:15:52;5.23;;;2.20;;
15831;SDS011;8016;49.928;9.372;2023-12-22T05:18:19;6.37;;;2.10;;
15831;SDS011;8016;49.928;9.372;2023-12-22T05:20:46;5.77;;;1.93;;
15831;SDS011;8016;49.928;9.372;2023-12-22T05:23:12;5.40;;;1.97;;
15831;SDS011;8016;49.928;9.372;2023-12-22T05:25:38;5.23;;;2.30;;
15831;SDS011;8016;49.928;9.372;2023-12-22T05:28:07;6.63;;;2.60;;
15831;SDS011;8016;49.928;9.372;2023-12-22T05:30:33;4.03;;;2.63;;
15831;SDS011;8016;49.928;9.372;2023-12-22T05:32:58;5.63;;;2.40;;
15831;SDS011;8016;49.928;9.372;2023-12-22T05:35:24;7.07;;;3.10;;
15831;SDS011;8016;49.928;9.372;2023-12-22T05:37:50;4.87;;;2.50;;
15831;SDS011;8016;49.928;9.372;2023-12-22T05:40:16;4.47;;;2.43;;
15831;SDS011;8016;49.928;9.372;2023-12-22T05:42:42;4.03;;;2.53;;
15831;SDS011;8016;49.928;9.372;2023-12-22T05:45:08;4.97;;;2.63;;
15831;SDS011;8016;49.928;9.372;2023-12-22T05:47:36;6.00;;;2.63;;
15831;SDS011;8016;49.928;9.372;2023-12-22T05:50:02;5.23;;;2.30;;
15831;SDS011;8016;49.928;9.372;2023-12-22T05:52:28;10.10;;;2.87;;
15831;SDS011;8016;49.928;9.372;2023-12-22T05:54:54;6.00;;;2.47;;
15831;SDS011;8016;49.928;9.372;2023-12-22T05:57:20;12.63;;;2.83;;
15831;SDS011;8016;49.928;9.372;2023-12-22T05:59:46;6.57;;;2.47;;
15831;SDS011;8016;49.928;9.372;2023-12-22T06:02:12;4.83;;;2.10;;
15831;SDS011;8016;49.928;9.372;2023-12-22T06:04:38;6.00;;;2.50;;
15831;SDS011;8016;49.928;9.372;2023-12-22T06:07:04;3.00;;;1.83;;
15831;SDS011;8016;49.928;9.372;2023-12-22T06:09:30;8.60;;;2.20;;
15831;SDS011;8016;49.928;9.372;2023-12-22T06:11:56;3.23;;;1.80;;
15831;SDS011;8016;49.928;9.372;2023-12-22T06:14:22;5.80;;;1.83;;
15831;SDS011;8016;49.928;9.372;2023-12-22T06:16:48;7.77;;;1.87;;
15831;SDS011;8016;49.928;9.372;2023-12-22T06:19:15;5.67;;;1.67;;
15831;SDS011;8016;49.928;9.372;2023-12-22T06:21:41;4.57;;;2.03;;
15831;SDS011;8016;49.928;9.372;2023-12-22T06:24:07;11.13;;;2.17;;
15831;SDS011;8016;49.928;9.372;2023-12-22T06:26:34;7.20;;;1.53;;
15831;SDS011;8016;49.928;9.372;2023-12-22T06:29:00;5.70;;;2.07;;
15831;SDS011;8016;49.928;9.372;2023-12-22T06:31:28;5.40;;;1.63;;
15831;SDS011;8016;49.928;9.372;2023-12-22T06:33:54;5.30;;;2.50;;
15831;SDS011;8016;49.928;9.372;2023-12-22T06:36:25;5.57;;;2.47;;
15831;SDS011;8016;49.928;9.372;2023-12-22T06:38:52;5.83;;;1.80;;
15831;SDS011;8016;49.928;9.372;2023-12-22T06:41:24;12.77;;;2.40;;
15831;SDS011;8016;49.928;9.372;2023-12-22T06:43:51;6.00;;;2.00;;
15831;SDS011;8016;49.928;9.372;2023-12-22T06:46:21;7.23;;;2.43;;
15831;SDS011;8016;49.928;9.372;2023-12-22T06:48:47;7.43;;;2.30;;
15831;SDS011;8016;49.928;9.372;2023-12-22T06:51:17;6.30;;;2.17;;
15831;SDS011;8016;49.928;9.372;2023-12-22T06:53:44;5.40;;;2.10;;
15831;SDS011;8016;49.928;9.372;2023-12-22T06:58:42;6.40;;;2.00;;
15831;SDS011;8016;49.928;9.372;2023-12-22T07:01:08;3.50;;;1.90;;
15831;SDS011;8016;49.928;9.372;2023-12-22T07:03:34;5.43;;;2.30;;
15831;SDS011;8016;49.928;9.372;2023-12-22T07:05:59;4.10;;;2.30;;
15831;SDS011;8016;49.928;9.372;2023-12-22T07:08:26;5.00;;;1.97;;
15831;SDS011;8016;49.928;9.372;2023-12-22T07:10:52;18.43;;;12.37;;
15831;SDS011;8016;49.928;9.372;2023-12-22T07:13:18;7.23;;;3.63;;
15831;SDS011;8016;49.928;9.372;2023-12-22T07:15:44;7.27;;;2.30;;
15831;SDS011;8016;49.928;9.372;2023-12-22T07:18:10;8.57;;;3.00;;
15831;SDS011;8016;49.928;9.372;2023-12-22T07:20:36;6.80;;;4.57;;
15831;SDS011;8016;49.928;9.372;2023-12-22T07:23:02;6.10;;;2.40;;
15831;SDS011;8016;49.928;9.372;2023-12-22T07:25:28;6.27;;;2.60;;
15831;SDS011;8016;49.928;9.372;2023-12-22T07:27:54;8.07;;;3.70;;
15831;SDS011;8016;49.928;9.372;2023-12-22T07:30:20;10.93;;;7.03;;
15831;SDS011;8016;49.928;9.372;2023-12-22T07:32:46;7.57;;;2.40;;
15831;SDS011;8016;49.928;9.372;2023-12-22T07:35:16;7.30;;;3.33;;
15831;SDS011;8016;49.928;9.372;2023-12-22T07:37:42;9.57;;;5.63;;
15831;SDS011;8016;49.928;9.372;2023-12-22T07:40:09;7.70;;;4.33;;
15831;SDS011;8016;49.928;9.372;2023-12-22T07:42:35;5.00;;;2.53;;
15831;SDS011;8016;49.928;9.372;2023-12-22T07:45:01;5.43;;;2.30;;
15831;SDS011;8016;49.928;9.372;2023-12-22T07:47:28;8.90;;;3.60;;
15831;SDS011;8016;49.928;9.372;2023-12-22T07:49:54;10.77;;;5.07;;
15831;SDS011;8016;49.928;9.372;2023-12-22T07:52:20;6.97;;;1.90;;
15831;SDS011;8016;49.928;9.372;2023-12-22T07:54:46;5.60;;;2.10;;
15831;SDS011;8016;49.928;9.372;2023-12-22T07:57:12;5.70;;;2.17;;
15831;SDS011;8016;49.928;9.372;2023-12-22T07:59:38;7.40;;;3.20;;
15831;SDS011;8016;49.928;9.372;2023-12-22T08:02:04;7.67;;;3.13;;
15831;SDS011;8016;49.928;9.372;2023-12-22T08:04:30;5.30;;;1.80;;
15831;SDS011;8016;49.928;9.372;2023-12-22T08:06:57;6.07;;;1.93;;
15831;SDS011;8016;49.928;9.372;2023-12-22T08:09:23;5.43;;;1.90;;
15831;SDS011;8016;49.928;9.372;2023-12-22T08:11:49;5.50;;;2.60;;
15831;SDS011;8016;49.928;9.372;2023-12-22T08:14:17;7.00;;;2.57;;
15831;SDS011;8016;49.928;9.372;2023-12-22T08:16:43;7.53;;;2.10;;
15831;SDS011;8016;49.928;9.372;2023-12-22T08:19:09;3.97;;;2.00;;
15831;SDS011;8016;49.928;9.372;2023-12-22T08:21:35;7.53;;;2.30;;
15831;SDS011;8016;49.928;9.372;2023-12-22T08:24:01;4.70;;;1.97;;
15831;SDS011;8016;49.928;9.372;2023-12-22T08:26:27;6.43;;;1.97;;
15831;SDS011;8016;49.928;9.372;2023-12-22T08:28:53;11.13;;;3.17;;
15831;SDS011;8016;49.928;9.372;2023-12-22T08:31:19;8.87;;;2.13;;
15831;SDS011;8016;49.928;9.372;2023-12-22T08:33:45;6.63;;;2.60;;
15831;SDS011;8016;49.928;9.372;2023-12-22T08:36:12;7.80;;;2.93;;
15831;SDS011;8016;49.928;9.372;2023-12-22T08:38:38;9.80;;;2.17;;
15831;SDS011;8016;49.928;9.372;2023-12-22T08:41:06;6.03;;;2.30;;
15831;SDS011;8016;49.928;9.372;2023-12-22T08:43:33;7.10;;;2.43;;
15831;SDS011;8016;49.928;9.372;2023-12-22T08:45:59;6.17;;;2.40;;
15831;SDS011;8016;49.928;9.372;2023-12-22T08:48:25;7.53;;;2.63;;
15831;SDS011;8016;49.928;9.372;2023-12-22T08:50:51;9.13;;;2.33;;
15831;SDS011;8016;49.928;9.372;2023-12-22T08:53:17;8.00;;;2.20;;
15831;SDS011;8016;49.928;9.372;2023-12-22T08:55:43;36.20;;;16.17;;
15831;SDS011;8016;49.928;9.372;2023-12-22T08:58:09;7.07;;;2.27;;
15831;SDS011;8016;49.928;9.372;2023-12-22T09:00:35;7.43;;;3.67;;
15831;SDS011;8016;49.928;9.372;2023-12-22T09:03:01;10.23;;;3.40;;
15831;SDS011;8016;49.928;9.372;2023-12-22T09:05:27;6.90;;;2.13;;
15831;SDS011;8016;49.928;9.372;2023-12-22T09:07:53;6.47;;;1.73;;
15831;SDS011;8016;49.928;9.372;2023-12-22T09:10:19;6.80;;;2.00;;
15831;SDS011;8016;49.928;9.372;2023-12-22T09:12:45;5.57;;;2.37;;
15831;SDS011;8016;49.928;9.372;2023-12-22T09:15:11;5.67;;;2.17;;
15831;SDS011;8016;49.928;9.372;2023-12-22T09:17:38;7.23;;;2.63;;
15831;SDS011;8016;49.928;9.372;2023-12-22T09:20:06;8.60;;;1.97;;
15831;SDS011;8016;49.928;9.372;2023-12-22T09:22:32;6.33;;;1.67;;
15831;SDS011;8016;49.928;9.372;2023-12-22T09:24:58;6.40;;;1.93;;
15831;SDS011;8016;49.928;9.372;2023-12-22T09:27:24;8.80;;;1.77;;
15831;SDS011;8016;49.928;9.372;2023-12-22T09:29:55;7.20;;;1.50;;
15831;SDS011;8016;49.928;9.372;2023-12-22T09:32:21;5.13;;;1.60;;
15831;SDS011;8016;49.928;9.372;2023-12-22T09:34:47;5.73;;;2.17;;
15831;SDS011;8016;49.928;9.372;2023-12-22T09:37:13;5.67;;;1.70;;
15831;SDS011;8016;49.928;9.372;2023-12-22T09:39:39;4.17;;;2.17;;
15831;SDS011;8016;49.928;9.372;2023-12-22T09:42:05;5.97;;;1.60;;
15831;SDS011;8016;49.928;9.372;2023-12-22T09:44:32;5.43;;;2.03;;
15831;SDS011;8016;49.928;9.372;2023-12-22T09:46:59;7.90;;;1.80;;
15831;SDS011;8016;49.928;9.372;2023-12-22T09:49:25;4.90;;;1.80;;
15831;SDS011;8016;49.928;9.372;2023-12-22T09:51:51;4.00;;;1.37;;
15831;SDS011;8016;49.928;9.372;2023-12-22T09:54:17;4.27;;;1.77;;
15831;SDS011;8016;49.928;9.372;2023-12-22T09:56:44;4.40;;;1.50;;
15831;SDS011;8016;49.928;9.372;2023-12-22T09:59:11;5.57;;;1.50;;
15831;SDS011;8016;49.928;9.372;2023-12-22T10:01:39;2.63;;;1.43;;
15831;SDS011;8016;49.928;9.372;2023-12-22T10:04:05;7.70;;;3.30;;
15831;SDS011;8016;49.928;9.372;2023-12-22T10:06:31;1.97;;;1.30;;
15831;SDS011;8016;49.928;9.372;2023-12-22T10:08:57;5.90;;;1.90;;
15831;SDS011;8016;49.928;9.372;2023-12-22T10:11:24;3.67;;;2.33;;
15831;SDS011;8016;49.928;9.372;2023-12-22T10:13:50;4.27;;;1.70;;
15831;SDS011;8016;49.928;9.372;2023-12-22T10:16:18;2.43;;;1.20;;
15831;SDS011;8016;49.928;9.372;2023-12-22T10:18:44;1.57;;;1.00;;
15831;SDS011;8016;49.928;9.372;2023-12-22T10:21:10;4.77;;;1.40;;
15831;SDS011;8016;49.928;9.372;2023-12-22T10:23:36;4.77;;;1.77;;
15831;SDS011;8016;49.928;9.372;2023-12-22T10:26:02;2.67;;;1.20;;
15831;SDS011;8016;49.928;9.372;2023-12-22T10:28:28;4.93;;;1.47;;
15831;SDS011;8016;49.928;9.372;2023-12-22T10:30:54;5.00;;;1.60;;
15831;SDS011;8016;49.928;9.372;2023-12-22T10:33:24;7.17;;;1.73;;
15831;SDS011;8016;49.928;9.372;2023-12-22T10:35:50;5.80;;;1.60;;
15831;SDS011;8016;49.928;9.372;2023-12-22T10:38:18;7.77;;;2.10;;
15831;SDS011;8016;49.928;9.372;2023-12-22T10:40:45;5.53;;;2.10;;
15831;SDS011;8016;49.928;9.372;2023-12-22T10:43:11;9.77;;;2.73;;
15831;SDS011;8016;49.928;9.372;2023-12-22T10:45:39;8.03;;;2.60;;
15831;SDS011;8016;49.928;9.372;2023-12-22T10:48:06;8.83;;;2.33;;
15831;SDS011;8016;49.928;9.372;2023-12-22T10:50:32;9.27;;;2.43;;
15831;SDS011;8016;49.928;9.372;2023-12-22T10:52:58;7.97;;;2.57;;
15831;SDS011;8016;49.928;9.372;2023-12-22T10:55:24;11.68;;;3.47;;
15831;SDS011;8016;49.928;9.372;2023-12-22T10:57:50;8.90;;;2.57;;
15831;SDS011;8016;49.928;9.372;2023-12-22T11:00:16;13.23;;;3.13;;
15831;SDS011;8016;49.928;9.372;2023-12-22T11:02:49;11.00;;;2.87;;
15831;SDS011;8016;49.928;9.372;2023-12-22T11:05:15;13.47;;;6.80;;
15831;SDS011;8016;49.928;9.372;2023-12-22T11:07:45;15.63;;;6.03;;
15831;SDS011;8016;49.928;9.372;2023-12-22T11:10:13;7.10;;;3.00;;
15831;SDS011;8016;49.928;9.372;2023-12-22T11:12:40;12.33;;;3.43;;
15831;SDS011;8016;49.928;9.372;2023-12-22T11:15:09;9.17;;;3.70;;
15831;SDS011;8016;49.928;9.372;2023-12-22T11:17:36;12.77;;;4.20;;
15831;SDS011;8016;49.928;9.372;2023-12-22T11:20:05;16.70;;;5.43;;
15831;SDS011;8016;49.928;9.372;2023-12-22T11:22:31;11.10;;;3.63;;
15831;SDS011;8016;49.928;9.372;2023-12-22T11:24:58;13.50;;;4.60;;
15831;SDS011;8016;49.928;9.372;2023-12-22T11:27:24;20.43;;;3.80;;
15831;SDS011;8016;49.928;9.372;2023-12-22T11:29:52;11.17;;;3.80;;
15831;SDS011;8016;49.928;9.372;2023-12-22T11:32:18;11.43;;;4.60;;
15831;SDS011;8016;49.928;9.372;2023-12-22T11:34:47;14.33;;;3.97;;
15831;SDS011;8016;49.928;9.372;2023-12-22T11:37:16;16.33;;;4.50;;
15831;SDS011;8016;49.928;9.372;2023-12-22T11:39:43;18.93;;;3.77;;
15831;SDS011;8016;49.928;9.372;2023-12-22T11:42:19;13.93;;;4.23;;
15831;SDS011;8016;49.928;9.372;2023-12-22T11:44:47;12.83;;;3.27;;
15831;SDS011;8016;49.928;9.372;2023-12-22T11:47:13;11.50;;;3.53;;
15831;SDS011;8016;49.928;9.372;2023-12-22T11:49:40;11.93;;;3.00;;
15831;SDS011;8016;49.928;9.372;2023-12-22T11:52:09;9.80;;;3.00;;
15831;SDS011;8016;49.928;9.372;2023-12-22T11:54:52;14.83;;;3.60;;
15831;SDS011;8016;49.928;9.372;2023-12-22T11:59:58;12.23;;;3.40;;
15831;SDS011;8016;49.928;9.372;2023-12-22T12:02:24;12.17;;;2.80;;
15831;SDS011;8016;49.928;9.372;2023-12-22T12:04:51;9.37;;;3.00;;
15831;SDS011;8016;49.928;9.372;2023-12-22T12:07:36;13.75;;;3.67;;
15831;SDS011;8016;49.928;9.372;2023-12-22T12:10:04;9.87;;;3.30;;
15831;SDS011;8016;49.928;9.372;2023-12-22T12:12:30;15.23;;;3.40;;
15831;SDS011;8016;49.928;9.372;2023-12-22T12:14:59;8.77;;;2.33;;
15831;SDS011;8016;49.928;9.372;2023-12-22T12:17:27;10.37;;;3.63;;
15831;SDS011;8016;49.928;9.372;2023-12-22T12:19:54;10.60;;;3.33;;
15831;SDS011;8016;49.928;9.372;2023-12-22T12:22:21;10.33;;;3.33;;
15831;SDS011;8016;49.928;9.372;2023-12-22T12:24:49;9.83;;;2.67;;
15831;SDS011;8016;49.928;9.372;2023-12-22T12:27:17;10.93;;;2.47;;
15831;SDS011;8016;49.928;9.372;2023-12-22T12:29:43;10.70;;;3.20;;
15831;SDS011;8016;49.928;9.372;2023-12-22T12:32:09;9.07;;;3.03;;
15831;SDS011;8016;49.928;9.372;2023-12-22T12:34:39;10.63;;;2.47;;
15831;SDS011;8016;49.928;9.372;2023-12-22T12:37:05;7.53;;;2.70;;
15831;SDS011;8016;49.928;9.372;2023-12-22T12:39:31;12.93;;;2.77;;
15831;SDS011;8016;49.928;9.372;2023-12-22T12:42:00;6.83;;;1.93;;
15831;SDS011;8016;49.928;9.372;2023-12-22T12:44:29;11.03;;;3.03;;
15831;SDS011;8016;49.928;9.372;2023-12-22T12:46:58;9.10;;;2.50;;
15831;SDS011;8016;49.928;9.372;2023-12-22T12:49:25;5.80;;;2.40;;
15831;SDS011;8016;49.928;9.372;2023-12-22T12:51:54;7.97;;;2.40;;
15831;SDS011;8016;49.928;9.372;2023-12-22T12:54:20;6.43;;;2.90;;
15831;SDS011;8016;49.928;9.372;2023-12-22T12:56:46;5.90;;;2.90;;
15831;SDS011;8016;49.928;9.372;2023-12-22T12:59:14;7.73;;;2.23;;
15831;SDS011;8016;49.928;9.372;2023-12-22T13:01:41;6.60;;;2.30;;
15831;SDS011;8016;49.928;9.372;2023-12-22T13:04:07;6.87;;;2.30;;
15831;SDS011;8016;49.928;9.372;2023-12-22T13:06:33;7.20;;;2.33;;
15831;SDS011;8016;49.928;9.372;2023-12-22T13:09:00;6.40;;;2.33;;
15831;SDS011;8016;49.928;9.372;2023-12-22T13:11:26;6.93;;;2.03;;
15831;SDS011;8016;49.928;9.372;2023-12-22T13:13:53;7.67;;;1.90;;
15831;SDS011;8016;49.928;9.372;2023-12-22T13:16:20;5.77;;;1.80;;
15831;SDS011;8016;49.928;9.372;2023-12-22T13:18:46;5.07;;;1.73;;
15831;SDS011;8016;49.928;9.372;2023-12-22T13:21:13;11.70;;;5.73;;
15831;SDS011;8016;49.928;9.372;2023-12-22T13:23:39;9.23;;;5.40;;
15831;SDS011;8016;49.928;9.372;2023-12-22T13:26:05;6.17;;;4.03;;
15831;SDS011;8016;49.928;9.372;2023-12-22T13:28:31;23.10;;;8.67;;
15831;SDS011;8016;49.928;9.372;2023-12-22T13:30:57;8.07;;;2.90;;
15831;SDS011;8016;49.928;9.372;2023-12-22T13:33:24;7.03;;;2.00;;
15831;SDS011;8016;49.928;9.372;2023-12-22T13:35:56;4.43;;;1.60;;
15831;SDS011;8016;49.928;9.372;2023-12-22T13:38:22;3.97;;;2.00;;
15831;SDS011;8016;49.928;9.372;2023-12-22T13:40:49;5.47;;;1.80;;
15831;SDS011;8016;49.928;9.372;2023-12-22T13:43:15;5.53;;;2.00;;
15831;SDS011;8016;49.928;9.372;2023-12-22T13:45:41;4.33;;;1.60;;
15831;SDS011;8016;49.928;9.372;2023-12-22T13:48:07;5.60;;;2.27;;
15831;SDS011;8016;49.928;9.372;2023-12-22T13:50:33;3.97;;;2.40;;
15831;SDS011;8016;49.928;9.372;2023-12-22T13:53:08;5.17;;;3.27;;
15831;SDS011;8016;49.928;9.372;2023-12-22T13:55:34;4.83;;;2.50;;
15831;SDS011;8016;49.928;9.372;2023-12-22T13:58:02;5.20;;;2.43;;
15831;SDS011;8016;49.928;9.372;2023-12-22T14:00:31;6.80;;;2.67;;
15831;SDS011;8016;49.928;9.372;2023-12-22T14:02:57;9.23;;;4.10;;
15831;SDS011;8016;49.928;9.372;2023-12-22T14:05:23;4.57;;;1.93;;
15831;SDS011;8016;49.928;9.372;2023-12-22T14:07:49;5.83;;;2.13;;
15831;SDS011;8016;49.928;9.372;2023-12-22T14:10:15;6.70;;;4.33;;
15831;SDS011;8016;49.928;9.372;2023-12-22T14:12:41;8.87;;;3.80;;
15831;SDS011;8016;49.928;9.372;2023-12-22T14:15:11;6.53;;;2.50;;
15831;SDS011;8016;49.928;9.372;2023-12-22T14:17:38;4.63;;;2.40;;
15831;SDS011;8016;49.928;9.372;2023-12-22T14:20:06;5.40;;;2.10;;
15831;SDS011;8016;49.928;9.372;2023-12-22T14:22:35;5.60;;;3.60;;
15831;SDS011;8016;49.928;9.372;2023-12-22T14:25:02;4.67;;;2.13;;
15831;SDS011;8016;49.928;9.372;2023-12-22T14:27:28;3.13;;;2.10;;
15831;SDS011;8016;49.928;9.372;2023-12-22T14:29:54;7.37;;;3.87;;
15831;SDS011;8016;49.928;9.372;2023-12-22T14:32:20;2.13;;;1.77;;
15831;SDS011;8016;49.928;9.372;2023-12-22T14:34:47;4.10;;;1.37;;
15831;SDS011;8016;49.928;9.372;2023-12-22T14:37:13;4.30;;;1.50;;
15831;SDS011;8016;49.928;9.372;2023-12-22T14:39:41;3.37;;;2.07;;
15831;SDS011;8016;49.928;9.372;2023-12-22T14:42:07;3.57;;;1.70;;
15831;SDS011;8016;49.928;9.372;2023-12-22T14:44:33;2.87;;;2.00;;
15831;SDS011;8016;49.928;9.372;2023-12-22T14:46:59;4.23;;;1.60;;
15831;SDS011;8016;49.928;9.372;2023-12-22T14:49:25;3.63;;;2.40;;
15831;SDS011;8016;49.928;9.372;2023-12-22T14:51:51;5.17;;;1.77;;
15831;SDS011;8016;49.928;9.372;2023-12-22T14:54:19;3.13;;;2.30;;
15831;SDS011;8016;49.928;9.372;2023-12-22T14:56:45;5.83;;;1.83;;
15831;SDS011;8016;49.928;9.372;2023-12-22T14:59:12;4.00;;;1.47;;
15831;SDS011;8016;49.928;9.372;2023-12-22T15:01:41;3.43;;;1.30;;